sensor_id;sensor_type;location;lat;lon;timestamp;temperature;humidity
15288;DHT22;7745;48.708;9.026;2022-09-29T00:00:20;7.00;99.90
15288;DHT22;7745;48.708;9.026;2022-09-29T00:02:47;7.00;99.90
15288;DHT22;7745;48.708;9.026;2022-09-29T00:05:14;7.00;99.90
15288;DHT22;7745;48.708;9.026;2022-09-29T00:07:42;7.00;99.90
15288;DHT22;7745;48.708;9.026;2022-09-29T00:10:10;7.10;99.90
15288;DHT22;7745;48.708;9.026;2022-09-29T00:12:36;7.10;99.90
15288;DHT22;7745;48.708;9.026;2022-09-29T00:15:04;7.10;99.90
15288;DHT22;7745;48.708;9.026;2022-09-29T00:17:31;7.10;99.90
15288;DHT22;7745;48.708;9.026;2022-09-29T00:19:58;7.30;99.90
15288;DHT22;7745;48.708;9.026;2022-09-29T00:22:25;7.10;99.90
15288;DHT22;7745;48.708;9.026;2022-09-29T00:24:53;7.10;99.90
15288;DHT22;7745;48.708;9.026;2022-09-29T00:27:20;7.20;99.90
15288;DHT22;7745;48.708;9.026;2022-09-29T00:29:47;7.20;99.90
15288;DHT22;7745;48.708;9.026;2022-09-29T00:32:14;7.20;99.90
15288;DHT22;7745;48.708;9.026;2022-09-29T00:34:41;7.20;99.90
15288;DHT22;7745;48.708;9.026;2022-09-29T00:37:07;7.20;99.90
15288;DHT22;7745;48.708;9.026;2022-09-29T00:39:34;7.30;99.90
15288;DHT22;7745;48.708;9.026;2022-09-29T00:42:03;7.20;99.90
15288;DHT22;7745;48.708;9.026;2022-09-29T00:45:13;7.20;99.90
15288;DHT22;7745;48.708;9.026;2022-09-29T00:47:43;7.20;99.90
15288;DHT22;7745;48.708;9.026;2022-09-29T00:50:14;7.20;99.90
15288;DHT22;7745;48.708;9.026;2022-09-29T00:52:45;7.20;99.90
15288;DHT22;7745;48.708;9.026;2022-09-29T00:55:15;7.20;99.90
15288;DHT22;7745;48.708;9.026;2022-09-29T00:57:47;7.20;99.90
15288;DHT22;7745;48.708;9.026;2022-09-29T01:00:16;7.10;99.90
15288;DHT22;7745;48.708;9.026;2022-09-29T01:02:46;7.20;99.90
15288;DHT22;7745;48.708;9.026;2022-09-29T01:05:17;7.20;99.90
15288;DHT22;7745;48.708;9.026;2022-09-29T01:07:45;7.30;99.90
15288;DHT22;7745;48.708;9.026;2022-09-29T01:10:14;7.30;99.90
15288;DHT22;7745;48.708;9.026;2022-09-29T01:12:45;7.30;99.90
15288;DHT22;7745;48.708;9.026;2022-09-29T01:15:14;7.30;99.90
15288;DHT22;7745;48.708;9.026;2022-09-29T01:17:41;7.30;99.90
15288;DHT22;7745;48.708;9.026;2022-09-29T01:20:11;7.40;99.90
15288;DHT22;7745;48.708;9.026;2022-09-29T01:29:41;7.40;99.90
15288;DHT22;7745;48.708;9.026;2022-09-29T01:32:18;7.50;99.90
15288;DHT22;7745;48.708;9.026;2022-09-29T01:34:54;7.50;99.90
15288;DHT22;7745;48.708;9.026;2022-09-29T01:37:30;7.50;99.90
15288;DHT22;7745;48.708;9.026;2022-09-29T01:40:09;7.50;99.90
15288;DHT22;7745;48.708;9.026;2022-09-29T01:42:44;7.50;99.90
15288;DHT22;7745;48.708;9.026;2022-09-29T01:45:20;7.50;99.90
15288;DHT22;7745;48.708;9.026;2022-09-29T01:47:52;7.60;99.90
15288;DHT22;7745;48.708;9.026;2022-09-29T01:50:23;7.50;99.90
15288;DHT22;7745;48.708;9.026;2022-09-29T01:52:56;7.60;99.90
15288;DHT22;7745;48.708;9.026;2022-09-29T01:55:29;7.60;99.90
15288;DHT22;7745;48.708;9.026;2022-09-29T01:57:59;7.60;99.90
15288;DHT22;7745;48.708;9.026;2022-09-29T02:00:28;7.60;99.90
15288;DHT22;7745;48.708;9.026;2022-09-29T02:03:00;7.60;99.90
15288;DHT22;7745;48.708;9.026;2022-09-29T02:05:33;7.60;99.90
15288;DHT22;7745;48.708;9.026;2022-09-29T02:08:07;7.60;99.90
15288;DHT22;7745;48.708;9.026;2022-09-29T02:10:38;7.60;99.90
15288;DHT22;7745;48.708;9.026;2022-09-29T02:13:08;7.60;99.90
15288;DHT22;7745;48.708;9.026;2022-09-29T02:15:38;7.60;99.90
15288;DHT22;7745;48.708;9.026;2022-09-29T02:18:12;7.60;99.90
15288;DHT22;7745;48.708;9.026;2022-09-29T02:20:40;7.60;99.90
15288;DHT22;7745;48.708;9.026;2022-09-29T02:23:06;7.70;99.90
15288;DHT22;7745;48.708;9.026;2022-09-29T02:25:35;7.70;99.90
15288;DHT22;7745;48.708;9.026;2022-09-29T02:28:03;7.70;99.90
15288;DHT22;7745;48.708;9.026;2022-09-29T02:30:30;7.70;99.90
15288;DHT22;7745;48.708;9.026;2022-09-29T02:32:57;7.70;99.90
15288;DHT22;7745;48.708;9.026;2022-09-29T02:35:29;7.70;99.90
15288;DHT22;7745;48.708;9.026;2022-09-29T02:38:03;7.80;99.90
15288;DHT22;7745;48.708;9.026;2022-09-29T02:40:39;7.80;99.90
15288;DHT22;7745;48.708;9.026;2022-09-29T02:43:38;7.80;99.90
15288;DHT22;7745;48.708;9.026;2022-09-29T02:46:19;7.70;99.90
15288;DHT22;7745;48.708;9.026;2022-09-29T02:49:05;7.70;99.90
15288;DHT22;7745;48.708;9.026;2022-09-29T02:51:38;7.70;99.90
15288;DHT22;7745;48.708;9.026;2022-09-29T02:54:16;7.70;99.90
15288;DHT22;7745;48.708;9.026;2022-09-29T02:56:57;7.70;99.90
15288;DHT22;7745;48.708;9.026;2022-09-29T02:59:32;7.70;99.90
15288;DHT22;7745;48.708;9.026;2022-09-29T03:02:01;7.70;99.90
15288;DHT22;7745;48.708;9.026;2022-09-29T03:04:28;7.70;99.90
15288;DHT22;7745;48.708;9.026;2022-09-29T03:06:56;7.80;99.90
15288;DHT22;7745;48.708;9.026;2022-09-29T03:09:23;7.80;99.90
15288;DHT22;7745;48.708;9.026;2022-09-29T03:11:50;7.70;99.90
15288;DHT22;7745;48.708;9.026;2022-09-29T03:14:17;7.70;99.90
15288;DHT22;7745;48.708;9.026;2022-09-29T03:16:43;7.70;99.90
15288;DHT22;7745;48.708;9.026;2022-09-29T03:19:10;7.70;99.90
15288;DHT22;7745;48.708;9.026;2022-09-29T03:21:37;7.70;99.90
15288;DHT22;7745;48.708;9.026;2022-09-29T03:24:05;7.70;99.90
15288;DHT22;7745;48.708;9.026;2022-09-29T03:26:32;7.70;99.90
15288;DHT22;7745;48.708;9.026;2022-09-29T03:29:00;7.80;99.90
15288;DHT22;7745;48.708;9.026;2022-09-29T03:31:27;7.70;99.90
15288;DHT22;7745;48.708;9.026;2022-09-29T03:33:54;7.70;99.90
15288;DHT22;7745;48.708;9.026;2022-09-29T03:36:20;7.70;99.90
15288;DHT22;7745;48.708;9.026;2022-09-29T03:38:47;7.70;99.90
15288;DHT22;7745;48.708;9.026;2022-09-29T03:41:15;7.70;99.90
15288;DHT22;7745;48.708;9.026;2022-09-29T03:43:42;7.60;99.90
15288;DHT22;7745;48.708;9.026;2022-09-29T03:46:09;7.60;99.90
15288;DHT22;7745;48.708;9.026;2022-09-29T03:48:36;7.60;99.90
15288;DHT22;7745;48.708;9.026;2022-09-29T03:51:03;7.60;99.90
15288;DHT22;7745;48.708;9.026;2022-09-29T03:53:32;7.50;99.90
15288;DHT22;7745;48.708;9.026;2022-09-29T03:56:01;7.50;99.90
15288;DHT22;7745;48.708;9.026;2022-09-29T03:58:29;7.50;99.90
15288;DHT22;7745;48.708;9.026;2022-09-29T04:00:56;7.40;99.90
15288;DHT22;7745;48.708;9.026;2022-09-29T04:03:23;7.40;99.90
15288;DHT22;7745;48.708;9.026;2022-09-29T04:05:50;7.50;99.90
15288;DHT22;7745;48.708;9.026;2022-09-29T04:08:17;7.30;99.90
15288;DHT22;7745;48.708;9.026;2022-09-29T04:10:45;7.20;99.90
15288;DHT22;7745;48.708;9.026;2022-09-29T04:13:13;7.20;99.90
15288;DHT22;7745;48.708;9.026;2022-09-29T04:15:41;7.20;99.90
15288;DHT22;7745;48.708;9.026;2022-09-29T04:18:08;7.20;99.90
15288;DHT22;7745;48.708;9.026;2022-09-29T04:20:36;7.10;99.90
15288;DHT22;7745;48.708;9.026;2022-09-29T04:23:04;7.10;99.90
15288;DHT22;7745;48.708;9.026;2022-09-29T04:25:31;7.10;99.90
15288;DHT22;7745;48.708;9.026;2022-09-29T04:27:57;7.10;99.90
15288;DHT22;7745;48.708;9.026;2022-09-29T04:30:24;7.00;99.90
15288;DHT22;7745;48.708;9.026;2022-09-29T04:32:52;7.10;99.90
15288;DHT22;7745;48.708;9.026;2022-09-29T04:35:19;7.00;99.90
15288;DHT22;7745;48.708;9.026;2022-09-29T04:37:46;7.00;99.90
15288;DHT22;7745;48.708;9.026;2022-09-29T04:40:12;6.90;99.90
15288;DHT22;7745;48.708;9.026;2022-09-29T04:42:39;6.90;99.90
15288;DHT22;7745;48.708;9.026;2022-09-29T04:45:06;6.80;99.90
15288;DHT22;7745;48.708;9.026;2022-09-29T04:47:33;6.80;99.90
15288;DHT22;7745;48.708;9.026;2022-09-29T04:50:01;7.00;99.90
15288;DHT22;7745;48.708;9.026;2022-09-29T04:52:28;6.90;99.90
15288;DHT22;7745;48.708;9.026;2022-09-29T04:54:55;6.80;99.90
15288;DHT22;7745;48.708;9.026;2022-09-29T04:57:22;6.80;99.90
15288;DHT22;7745;48.708;9.026;2022-09-29T04:59:48;6.80;99.90
15288;DHT22;7745;48.708;9.026;2022-09-29T05:02:16;6.80;99.90
15288;DHT22;7745;48.708;9.026;2022-09-29T05:04:43;6.80;99.90
15288;DHT22;7745;48.708;9.026;2022-09-29T05:07:13;6.70;99.90
15288;DHT22;7745;48.708;9.026;2022-09-29T05:09:40;6.60;99.90
15288;DHT22;7745;48.708;9.026;2022-09-29T05:12:07;6.60;99.90
15288;DHT22;7745;48.708;9.026;2022-09-29T05:14:34;6.60;99.90
15288;DHT22;7745;48.708;9.026;2022-09-29T05:17:01;6.60;99.90
15288;DHT22;7745;48.708;9.026;2022-09-29T05:19:27;6.60;99.90
15288;DHT22;7745;48.708;9.026;2022-09-29T05:21:55;6.60;99.90
15288;DHT22;7745;48.708;9.026;2022-09-29T05:24:23;6.50;99.90
15288;DHT22;7745;48.708;9.026;2022-09-29T05:26:50;6.60;99.90
15288;DHT22;7745;48.708;9.026;2022-09-29T05:29:17;6.60;99.90
15288;DHT22;7745;48.708;9.026;2022-09-29T05:31:44;6.60;99.90
15288;DHT22;7745;48.708;9.026;2022-09-29T05:34:11;6.60;99.90
15288;DHT22;7745;48.708;9.026;2022-09-29T05:36:37;6.60;99.90
15288;DHT22;7745;48.708;9.026;2022-09-29T05:39:04;6.70;99.90
15288;DHT22;7745;48.708;9.026;2022-09-29T05:41:32;6.70;99.90
15288;DHT22;7745;48.708;9.026;2022-09-29T05:43:59;6.70;99.90
15288;DHT22;7745;48.708;9.026;2022-09-29T05:46:27;6.70;99.90
15288;DHT22;7745;48.708;9.026;2022-09-29T05:48:54;6.70;99.90
15288;DHT22;7745;48.708;9.026;2022-09-29T05:51:22;6.70;99.90
15288;DHT22;7745;48.708;9.026;2022-09-29T05:53:49;6.70;99.90
15288;DHT22;7745;48.708;9.026;2022-09-29T05:56:19;6.70;99.90
15288;DHT22;7745;48.708;9.026;2022-09-29T05:58:48;6.80;99.90
15288;DHT22;7745;48.708;9.026;2022-09-29T06:01:17;6.80;99.90
15288;DHT22;7745;48.708;9.026;2022-09-29T06:03:44;6.80;99.90
15288;DHT22;7745;48.708;9.026;2022-09-29T06:06:12;6.90;99.90
15288;DHT22;7745;48.708;9.026;2022-09-29T06:08:40;6.90;99.90
15288;DHT22;7745;48.708;9.026;2022-09-29T06:11:08;6.90;99.90
15288;DHT22;7745;48.708;9.026;2022-09-29T06:13:37;6.90;99.90
15288;DHT22;7745;48.708;9.026;2022-09-29T06:16:05;7.00;99.90
15288;DHT22;7745;48.708;9.026;2022-09-29T06:18:32;7.00;99.90
15288;DHT22;7745;48.708;9.026;2022-09-29T06:21:00;7.10;99.90
15288;DHT22;7745;48.708;9.026;2022-09-29T06:23:27;7.10;99.90
15288;DHT22;7745;48.708;9.026;2022-09-29T06:25:55;7.20;99.90
15288;DHT22;7745;48.708;9.026;2022-09-29T06:28:22;7.20;99.90
15288;DHT22;7745;48.708;9.026;2022-09-29T06:30:49;7.20;99.90
15288;DHT22;7745;48.708;9.026;2022-09-29T06:33:17;7.20;99.90
15288;DHT22;7745;48.708;9.026;2022-09-29T06:35:45;7.30;99.90
15288;DHT22;7745;48.708;9.026;2022-09-29T06:38:30;7.30;99.90
15288;DHT22;7745;48.708;9.026;2022-09-29T06:40:56;7.40;99.90
15288;DHT22;7745;48.708;9.026;2022-09-29T06:43:23;7.40;99.90
15288;DHT22;7745;48.708;9.026;2022-09-29T06:45:50;7.40;99.90
15288;DHT22;7745;48.708;9.026;2022-09-29T06:48:18;7.50;99.90
15288;DHT22;7745;48.708;9.026;2022-09-29T06:50:45;7.60;99.90
15288;DHT22;7745;48.708;9.026;2022-09-29T06:53:12;7.60;99.90
15288;DHT22;7745;48.708;9.026;2022-09-29T06:55:39;7.70;99.90
15288;DHT22;7745;48.708;9.026;2022-09-29T06:58:06;7.60;99.90
15288;DHT22;7745;48.708;9.026;2022-09-29T07:00:33;7.70;99.90
15288;DHT22;7745;48.708;9.026;2022-09-29T07:03:00;7.70;99.90
15288;DHT22;7745;48.708;9.026;2022-09-29T07:05:28;7.80;99.90
15288;DHT22;7745;48.708;9.026;2022-09-29T07:07:56;7.80;99.90
15288;DHT22;7745;48.708;9.026;2022-09-29T07:10:23;7.80;99.90
15288;DHT22;7745;48.708;9.026;2022-09-29T07:12:50;7.80;99.90
15288;DHT22;7745;48.708;9.026;2022-09-29T07:15:17;7.90;99.90
15288;DHT22;7745;48.708;9.026;2022-09-29T07:17:44;7.90;99.90
15288;DHT22;7745;48.708;9.026;2022-09-29T07:20:11;8.00;99.90
15288;DHT22;7745;48.708;9.026;2022-09-29T07:22:39;8.00;99.90
15288;DHT22;7745;48.708;9.026;2022-09-29T07:25:06;8.00;99.90
15288;DHT22;7745;48.708;9.026;2022-09-29T07:27:33;8.10;99.90
15288;DHT22;7745;48.708;9.026;2022-09-29T07:30:00;8.10;99.90
15288;DHT22;7745;48.708;9.026;2022-09-29T07:32:27;8.20;99.90
15288;DHT22;7745;48.708;9.026;2022-09-29T07:34:56;8.20;99.90
15288;DHT22;7745;48.708;9.026;2022-09-29T07:37:24;8.20;99.90
15288;DHT22;7745;48.708;9.026;2022-09-29T07:39:52;8.20;99.90
15288;DHT22;7745;48.708;9.026;2022-09-29T07:42:19;8.30;99.90
15288;DHT22;7745;48.708;9.026;2022-09-29T07:44:46;8.30;99.90
15288;DHT22;7745;48.708;9.026;2022-09-29T07:47:13;8.40;99.90
15288;DHT22;7745;48.708;9.026;2022-09-29T07:49:39;8.50;99.90
15288;DHT22;7745;48.708;9.026;2022-09-29T07:52:07;8.50;99.90
15288;DHT22;7745;48.708;9.026;2022-09-29T07:54:33;8.50;99.90
15288;DHT22;7745;48.708;9.026;2022-09-29T07:57:02;8.60;99.90
15288;DHT22;7745;48.708;9.026;2022-09-29T07:59:29;8.70;99.90
15288;DHT22;7745;48.708;9.026;2022-09-29T08:01:56;8.80;99.90
15288;DHT22;7745;48.708;9.026;2022-09-29T08:04:23;8.80;99.90
15288;DHT22;7745;48.708;9.026;2022-09-29T08:06:50;8.90;99.90
15288;DHT22;7745;48.708;9.026;2022-09-29T08:09:16;9.00;99.90
15288;DHT22;7745;48.708;9.026;2022-09-29T08:11:43;9.00;99.90
15288;DHT22;7745;48.708;9.026;2022-09-29T08:14:11;9.10;99.90
15288;DHT22;7745;48.708;9.026;2022-09-29T08:16:38;9.20;99.90
15288;DHT22;7745;48.708;9.026;2022-09-29T08:19:05;9.20;99.90
15288;DHT22;7745;48.708;9.026;2022-09-29T08:21:32;9.20;99.90
15288;DHT22;7745;48.708;9.026;2022-09-29T08:24:01;9.30;99.90
15288;DHT22;7745;48.708;9.026;2022-09-29T08:26:31;9.40;99.90
15288;DHT22;7745;48.708;9.026;2022-09-29T08:28:59;9.60;99.90
15288;DHT22;7745;48.708;9.026;2022-09-29T08:31:28;9.60;99.90
15288;DHT22;7745;48.708;9.026;2022-09-29T08:33:56;9.80;99.90
15288;DHT22;7745;48.708;9.026;2022-09-29T08:36:23;9.90;99.90
15288;DHT22;7745;48.708;9.026;2022-09-29T08:38:51;10.10;99.90
15288;DHT22;7745;48.708;9.026;2022-09-29T08:41:30;10.00;99.90
15288;DHT22;7745;48.708;9.026;2022-09-29T08:44:02;10.10;99.90
15288;DHT22;7745;48.708;9.026;2022-09-29T08:46:33;10.10;99.90
15288;DHT22;7745;48.708;9.026;2022-09-29T08:49:06;10.30;99.90
15288;DHT22;7745;48.708;9.026;2022-09-29T08:51:39;10.30;99.90
15288;DHT22;7745;48.708;9.026;2022-09-29T08:54:23;10.40;99.90
15288;DHT22;7745;48.708;9.026;2022-09-29T08:56:53;10.40;99.90
15288;DHT22;7745;48.708;9.026;2022-09-29T08:59:20;10.60;99.90
15288;DHT22;7745;48.708;9.026;2022-09-29T09:02:02;10.80;99.90
15288;DHT22;7745;48.708;9.026;2022-09-29T09:04:52;10.80;99.90
15288;DHT22;7745;48.708;9.026;2022-09-29T09:07:27;10.80;99.90
15288;DHT22;7745;48.708;9.026;2022-09-29T09:10:13;10.90;99.90
15288;DHT22;7745;48.708;9.026;2022-09-29T09:13:02;10.90;99.90
15288;DHT22;7745;48.708;9.026;2022-09-29T09:15:39;10.80;99.90
15288;DHT22;7745;48.708;9.026;2022-09-29T09:18:23;10.80;99.90
15288;DHT22;7745;48.708;9.026;2022-09-29T09:21:02;10.80;99.90
15288;DHT22;7745;48.708;9.026;2022-09-29T09:23:41;10.90;99.90
15288;DHT22;7745;48.708;9.026;2022-09-29T09:26:12;11.00;99.90
15288;DHT22;7745;48.708;9.026;2022-09-29T09:28:44;11.00;99.90
15288;DHT22;7745;48.708;9.026;2022-09-29T09:31:18;11.00;99.90
15288;DHT22;7745;48.708;9.026;2022-09-29T09:33:51;11.10;99.90
15288;DHT22;7745;48.708;9.026;2022-09-29T09:36:24;11.10;99.90
15288;DHT22;7745;48.708;9.026;2022-09-29T09:38:58;11.10;99.90
15288;DHT22;7745;48.708;9.026;2022-09-29T09:41:27;11.10;99.90
15288;DHT22;7745;48.708;9.026;2022-09-29T09:43:57;11.10;99.90
15288;DHT22;7745;48.708;9.026;2022-09-29T09:46:31;11.20;99.90
15288;DHT22;7745;48.708;9.026;2022-09-29T09:49:06;11.20;99.90
15288;DHT22;7745;48.708;9.026;2022-09-29T09:51:44;11.40;99.90
15288;DHT22;7745;48.708;9.026;2022-09-29T09:54:23;11.50;99.90
15288;DHT22;7745;48.708;9.026;2022-09-29T10:00:02;11.70;99.90
15288;DHT22;7745;48.708;9.026;2022-09-29T10:02:31;11.70;99.90
15288;DHT22;7745;48.708;9.026;2022-09-29T10:04:59;11.70;99.90
15288;DHT22;7745;48.708;9.026;2022-09-29T10:07:29;11.70;99.90
15288;DHT22;7745;48.708;9.026;2022-09-29T10:09:57;11.70;99.90
15288;DHT22;7745;48.708;9.026;2022-09-29T10:12:28;11.70;99.90
15288;DHT22;7745;48.708;9.026;2022-09-29T10:14:59;11.70;99.90
15288;DHT22;7745;48.708;9.026;2022-09-29T10:17:32;11.80;99.90
15288;DHT22;7745;48.708;9.026;2022-09-29T10:20:05;11.80;99.90
15288;DHT22;7745;48.708;9.026;2022-09-29T10:22:33;11.80;99.90
15288;DHT22;7745;48.708;9.026;2022-09-29T10:25:07;11.90;99.90
15288;DHT22;7745;48.708;9.026;2022-09-29T10:27:35;12.00;99.90
15288;DHT22;7745;48.708;9.026;2022-09-29T10:30:16;12.00;99.90
15288;DHT22;7745;48.708;9.026;2022-09-29T10:32:44;12.00;99.90
15288;DHT22;7745;48.708;9.026;2022-09-29T10:35:21;12.10;99.90
15288;DHT22;7745;48.708;9.026;2022-09-29T10:37:58;12.00;99.90
15288;DHT22;7745;48.708;9.026;2022-09-29T10:40:25;12.10;99.90
15288;DHT22;7745;48.708;9.026;2022-09-29T10:42:52;12.10;99.90
15288;DHT22;7745;48.708;9.026;2022-09-29T10:45:20;12.10;99.90
15288;DHT22;7745;48.708;9.026;2022-09-29T10:48:05;12.20;99.90
15288;DHT22;7745;48.708;9.026;2022-09-29T10:50:36;12.10;99.90
15288;DHT22;7745;48.708;9.026;2022-09-29T10:53:05;12.10;99.90
15288;DHT22;7745;48.708;9.026;2022-09-29T10:55:47;12.10;99.90
15288;DHT22;7745;48.708;9.026;2022-09-29T10:58:19;12.10;99.90
15288;DHT22;7745;48.708;9.026;2022-09-29T11:00:48;12.10;99.90
15288;DHT22;7745;48.708;9.026;2022-09-29T11:03:18;12.10;99.90
15288;DHT22;7745;48.708;9.026;2022-09-29T11:05:53;12.00;99.90
15288;DHT22;7745;48.708;9.026;2022-09-29T11:08:21;12.10;99.90
15288;DHT22;7745;48.708;9.026;2022-09-29T11:11:03;12.20;99.90
15288;DHT22;7745;48.708;9.026;2022-09-29T11:13:36;12.30;99.90
15288;DHT22;7745;48.708;9.026;2022-09-29T11:16:11;12.50;99.90
15288;DHT22;7745;48.708;9.026;2022-09-29T11:18:41;12.60;99.90
15288;DHT22;7745;48.708;9.026;2022-09-29T11:21:34;12.80;99.90
15288;DHT22;7745;48.708;9.026;2022-09-29T11:24:14;13.00;99.90
15288;DHT22;7745;48.708;9.026;2022-09-29T11:26:48;13.00;99.90
15288;DHT22;7745;48.708;9.026;2022-09-29T11:29:31;13.10;99.90
15288;DHT22;7745;48.708;9.026;2022-09-29T11:32:13;13.20;99.90
15288;DHT22;7745;48.708;9.026;2022-09-29T11:41:04;13.10;99.90
15288;DHT22;7745;48.708;9.026;2022-09-29T11:43:42;13.10;99.90
15288;DHT22;7745;48.708;9.026;2022-09-29T11:46:20;13.10;99.90
15288;DHT22;7745;48.708;9.026;2022-09-29T11:49:03;13.10;99.90
15288;DHT22;7745;48.708;9.026;2022-09-29T11:52:03;13.10;99.90
15288;DHT22;7745;48.708;9.026;2022-09-29T11:54:44;13.30;99.90
15288;DHT22;7745;48.708;9.026;2022-09-29T11:57:31;13.20;99.90
15288;DHT22;7745;48.708;9.026;2022-09-29T12:00:04;13.10;99.90
15288;DHT22;7745;48.708;9.026;2022-09-29T12:03:03;13.10;99.90
15288;DHT22;7745;48.708;9.026;2022-09-29T12:05:46;13.10;99.90
15288;DHT22;7745;48.708;9.026;2022-09-29T12:08:21;13.10;99.90
15288;DHT22;7745;48.708;9.026;2022-09-29T12:10:57;13.10;99.90
15288;DHT22;7745;48.708;9.026;2022-09-29T12:13:37;13.20;99.90
15288;DHT22;7745;48.708;9.026;2022-09-29T12:16:11;13.20;99.90
15288;DHT22;7745;48.708;9.026;2022-09-29T12:18:43;13.30;99.90
15288;DHT22;7745;48.708;9.026;2022-09-29T12:21:13;13.30;99.90
15288;DHT22;7745;48.708;9.026;2022-09-29T12:23:42;13.30;99.90
15288;DHT22;7745;48.708;9.026;2022-09-29T12:26:15;13.30;99.90
15288;DHT22;7745;48.708;9.026;2022-09-29T12:28:47;13.30;99.90
15288;DHT22;7745;48.708;9.026;2022-09-29T12:31:20;13.20;99.90
15288;DHT22;7745;48.708;9.026;2022-09-29T12:33:51;13.10;99.90
15288;DHT22;7745;48.708;9.026;2022-09-29T12:36:42;13.20;99.90
15288;DHT22;7745;48.708;9.026;2022-09-29T12:39:18;13.30;99.90
15288;DHT22;7745;48.708;9.026;2022-09-29T12:41:51;13.30;99.90
15288;DHT22;7745;48.708;9.026;2022-09-29T12:44:26;13.40;99.90
15288;DHT22;7745;48.708;9.026;2022-09-29T12:47:01;13.40;99.90
15288;DHT22;7745;48.708;9.026;2022-09-29T12:49:36;13.40;99.90
15288;DHT22;7745;48.708;9.026;2022-09-29T12:52:14;13.50;99.90
15288;DHT22;7745;48.708;9.026;2022-09-29T12:54:47;13.50;99.90
15288;DHT22;7745;48.708;9.026;2022-09-29T12:57:18;13.50;99.90
15288;DHT22;7745;48.708;9.026;2022-09-29T12:59:54;13.40;99.90
15288;DHT22;7745;48.708;9.026;2022-09-29T13:02:41;13.40;99.90
15288;DHT22;7745;48.708;9.026;2022-09-29T13:05:25;13.30;99.90
15288;DHT22;7745;48.708;9.026;2022-09-29T13:10:59;13.20;99.90
15288;DHT22;7745;48.708;9.026;2022-09-29T13:13:50;13.20;99.90
15288;DHT22;7745;48.708;9.026;2022-09-29T13:16:37;13.20;99.90
15288;DHT22;7745;48.708;9.026;2022-09-29T13:19:22;13.20;99.90
15288;DHT22;7745;48.708;9.026;2022-09-29T13:21:59;13.20;99.90
15288;DHT22;7745;48.708;9.026;2022-09-29T13:24:43;13.10;99.90
15288;DHT22;7745;48.708;9.026;2022-09-29T13:27:24;13.00;99.90
15288;DHT22;7745;48.708;9.026;2022-09-29T13:29:57;13.10;99.90
15288;DHT22;7745;48.708;9.026;2022-09-29T13:32:28;13.10;99.90
15288;DHT22;7745;48.708;9.026;2022-09-29T13:34:58;13.10;99.90
15288;DHT22;7745;48.708;9.026;2022-09-29T13:37:30;13.10;99.90
15288;DHT22;7745;48.708;9.026;2022-09-29T13:39:59;13.10;99.90
15288;DHT22;7745;48.708;9.026;2022-09-29T13:42:39;13.10;99.90
15288;DHT22;7745;48.708;9.026;2022-09-29T13:45:36;13.00;99.90
15288;DHT22;7745;48.708;9.026;2022-09-29T13:54:32;13.10;99.90
15288;DHT22;7745;48.708;9.026;2022-09-29T13:57:26;13.10;99.90
15288;DHT22;7745;48.708;9.026;2022-09-29T14:00:23;13.10;99.90
15288;DHT22;7745;48.708;9.026;2022-09-29T14:03:05;13.20;99.90
15288;DHT22;7745;48.708;9.026;2022-09-29T14:05:53;13.30;99.90
15288;DHT22;7745;48.708;9.026;2022-09-29T14:08:28;13.30;99.90
15288;DHT22;7745;48.708;9.026;2022-09-29T14:11:15;13.30;99.90
15288;DHT22;7745;48.708;9.026;2022-09-29T14:13:47;13.30;99.90
15288;DHT22;7745;48.708;9.026;2022-09-29T14:16:35;13.30;99.90
15288;DHT22;7745;48.708;9.026;2022-09-29T14:19:06;13.20;99.90
15288;DHT22;7745;48.708;9.026;2022-09-29T14:21:49;13.10;99.90
15288;DHT22;7745;48.708;9.026;2022-09-29T14:24:41;13.00;99.90
15288;DHT22;7745;48.708;9.026;2022-09-29T14:27:32;13.00;99.90
15288;DHT22;7745;48.708;9.026;2022-09-29T14:30:12;12.90;99.90
15288;DHT22;7745;48.708;9.026;2022-09-29T14:32:46;13.00;99.90
15288;DHT22;7745;48.708;9.026;2022-09-29T14:35:18;12.90;99.90
15288;DHT22;7745;48.708;9.026;2022-09-29T14:37:49;12.90;99.90
15288;DHT22;7745;48.708;9.026;2022-09-29T14:40:19;12.90;99.90
15288;DHT22;7745;48.708;9.026;2022-09-29T14:43:08;12.80;99.90
15288;DHT22;7745;48.708;9.026;2022-09-29T14:45:45;12.90;99.90
15288;DHT22;7745;48.708;9.026;2022-09-29T14:48:35;12.90;99.90
15288;DHT22;7745;48.708;9.026;2022-09-29T14:51:24;12.90;99.90
15288;DHT22;7745;48.708;9.026;2022-09-29T14:54:19;12.90;99.90
15288;DHT22;7745;48.708;9.026;2022-09-29T14:56:58;12.90;99.90
15288;DHT22;7745;48.708;9.026;2022-09-29T14:59:43;12.80;99.90
15288;DHT22;7745;48.708;9.026;2022-09-29T15:02:20;12.70;99.90
15288;DHT22;7745;48.708;9.026;2022-09-29T15:04:48;12.70;99.90
15288;DHT22;7745;48.708;9.026;2022-09-29T15:07:17;12.60;99.90
15288;DHT22;7745;48.708;9.026;2022-09-29T15:09:47;12.70;99.90
15288;DHT22;7745;48.708;9.026;2022-09-29T15:12:21;12.60;99.90
15288;DHT22;7745;48.708;9.026;2022-09-29T15:14:48;12.50;99.90
15288;DHT22;7745;48.708;9.026;2022-09-29T15:17:21;12.50;99.90
15288;DHT22;7745;48.708;9.026;2022-09-29T15:19:59;12.50;99.90
15288;DHT22;7745;48.708;9.026;2022-09-29T15:22:43;12.50;99.90
15288;DHT22;7745;48.708;9.026;2022-09-29T15:25:23;12.50;99.90
15288;DHT22;7745;48.708;9.026;2022-09-29T15:27:58;12.50;99.90
15288;DHT22;7745;48.708;9.026;2022-09-29T15:30:26;12.50;99.90
15288;DHT22;7745;48.708;9.026;2022-09-29T15:33:06;12.50;99.90
15288;DHT22;7745;48.708;9.026;2022-09-29T15:35:38;12.50;99.90
15288;DHT22;7745;48.708;9.026;2022-09-29T15:38:27;12.40;99.90
15288;DHT22;7745;48.708;9.026;2022-09-29T15:41:00;12.40;99.90
15288;DHT22;7745;48.708;9.026;2022-09-29T15:43:37;12.40;99.90
15288;DHT22;7745;48.708;9.026;2022-09-29T15:46:14;12.40;99.90
15288;DHT22;7745;48.708;9.026;2022-09-29T15:51:28;12.30;99.90
15288;DHT22;7745;48.708;9.026;2022-09-29T15:53:54;12.30;99.90
15288;DHT22;7745;48.708;9.026;2022-09-29T15:56:21;12.30;99.90
15288;DHT22;7745;48.708;9.026;2022-09-29T15:58:49;12.30;99.90
15288;DHT22;7745;48.708;9.026;2022-09-29T16:01:18;12.30;99.90
15288;DHT22;7745;48.708;9.026;2022-09-29T16:03:49;12.20;99.90
15288;DHT22;7745;48.708;9.026;2022-09-29T16:06:24;12.20;99.90
15288;DHT22;7745;48.708;9.026;2022-09-29T16:08:55;12.10;99.90
15288;DHT22;7745;48.708;9.026;2022-09-29T16:11:25;12.10;99.90
15288;DHT22;7745;48.708;9.026;2022-09-29T16:13:58;12.00;99.90
15288;DHT22;7745;48.708;9.026;2022-09-29T16:16:32;12.00;99.90
15288;DHT22;7745;48.708;9.026;2022-09-29T16:19:02;12.00;99.90
15288;DHT22;7745;48.708;9.026;2022-09-29T16:21:34;12.00;99.90
15288;DHT22;7745;48.708;9.026;2022-09-29T16:24:12;11.90;99.90
15288;DHT22;7745;48.708;9.026;2022-09-29T16:26:45;11.90;99.90
15288;DHT22;7745;48.708;9.026;2022-09-29T16:29:31;11.90;99.90
15288;DHT22;7745;48.708;9.026;2022-09-29T16:31:59;11.80;99.90
15288;DHT22;7745;48.708;9.026;2022-09-29T16:34:30;11.80;99.90
15288;DHT22;7745;48.708;9.026;2022-09-29T16:36:58;11.80;99.90
15288;DHT22;7745;48.708;9.026;2022-09-29T16:39:28;11.70;99.90
15288;DHT22;7745;48.708;9.026;2022-09-29T16:41:58;11.60;99.90
15288;DHT22;7745;48.708;9.026;2022-09-29T16:44:30;11.60;99.90
15288;DHT22;7745;48.708;9.026;2022-09-29T16:46:59;11.50;99.90
15288;DHT22;7745;48.708;9.026;2022-09-29T16:49:29;11.50;99.90
15288;DHT22;7745;48.708;9.026;2022-09-29T16:51:59;11.50;99.90
15288;DHT22;7745;48.708;9.026;2022-09-29T16:54:30;11.40;99.90